sensor_id;sensor_type;location;lat;lon;timestamp;temperature;humidity
11538;DHT22;50159;49.426;11.182;2022-11-20T00:01:24;0.70;99.90
11538;DHT22;50159;49.426;11.182;2022-11-20T00:03:54;0.70;99.90
11538;DHT22;50159;49.426;11.182;2022-11-20T00:06:22;0.70;99.90
11538;DHT22;50159;49.426;11.182;2022-11-20T00:08:50;0.70;99.90
11538;DHT22;50159;49.426;11.182;2022-11-20T00:11:21;0.70;99.90
11538;DHT22;50159;49.426;11.182;2022-11-20T00:13:52;0.70;99.90
11538;DHT22;50159;49.426;11.182;2022-11-20T00:16:23;0.70;99.90
11538;DHT22;50159;49.426;11.182;2022-11-20T00:18:52;0.70;99.90
11538;DHT22;50159;49.426;11.182;2022-11-20T00:21:24;0.70;99.90
11538;DHT22;50159;49.426;11.182;2022-11-20T00:23:54;0.70;99.90
11538;DHT22;50159;49.426;11.182;2022-11-20T00:26:23;0.70;99.90
11538;DHT22;50159;49.426;11.182;2022-11-20T00:28:53;0.80;99.90
11538;DHT22;50159;49.426;11.182;2022-11-20T00:31:21;0.80;99.90
11538;DHT22;50159;49.426;11.182;2022-11-20T00:33:49;0.80;99.90
11538;DHT22;50159;49.426;11.182;2022-11-20T00:36:21;0.70;99.90
11538;DHT22;50159;49.426;11.182;2022-11-20T00:38:53;0.70;99.90
11538;DHT22;50159;49.426;11.182;2022-11-20T00:41:22;0.80;99.90
11538;DHT22;50159;49.426;11.182;2022-11-20T00:43:52;0.70;99.90
11538;DHT22;50159;49.426;11.182;2022-11-20T00:46:22;0.70;99.90
11538;DHT22;50159;49.426;11.182;2022-11-20T00:48:50;0.70;99.90
11538;DHT22;50159;49.426;11.182;2022-11-20T00:51:19;0.80;99.90
11538;DHT22;50159;49.426;11.182;2022-11-20T00:53:48;0.80;99.90
11538;DHT22;50159;49.426;11.182;2022-11-20T00:56:17;0.80;99.90
11538;DHT22;50159;49.426;11.182;2022-11-20T00:58:47;0.80;99.90
11538;DHT22;50159;49.426;11.182;2022-11-20T01:01:21;0.80;99.90
11538;DHT22;50159;49.426;11.182;2022-11-20T01:03:55;0.80;99.90
11538;DHT22;50159;49.426;11.182;2022-11-20T01:06:29;0.80;99.90
11538;DHT22;50159;49.426;11.182;2022-11-20T01:09:00;0.80;99.90
11538;DHT22;50159;49.426;11.182;2022-11-20T01:11:30;0.80;99.90
11538;DHT22;50159;49.426;11.182;2022-11-20T01:14:02;0.80;99.90
11538;DHT22;50159;49.426;11.182;2022-11-20T01:16:36;0.80;99.90
11538;DHT22;50159;49.426;11.182;2022-11-20T01:19:07;0.70;99.90
11538;DHT22;50159;49.426;11.182;2022-11-20T01:21:44;0.70;99.90
11538;DHT22;50159;49.426;11.182;2022-11-20T01:24:14;0.70;99.90
11538;DHT22;50159;49.426;11.182;2022-11-20T01:26:43;0.70;99.90
11538;DHT22;50159;49.426;11.182;2022-11-20T01:29:20;0.70;99.90
11538;DHT22;50159;49.426;11.182;2022-11-20T01:31:51;0.80;99.90
11538;DHT22;50159;49.426;11.182;2022-11-20T01:34:20;0.80;99.90
11538;DHT22;50159;49.426;11.182;2022-11-20T01:36:50;0.80;99.90
11538;DHT22;50159;49.426;11.182;2022-11-20T01:39:23;0.80;99.90
11538;DHT22;50159;49.426;11.182;2022-11-20T01:41:53;0.80;99.90
11538;DHT22;50159;49.426;11.182;2022-11-20T01:44:55;0.80;99.90
11538;DHT22;50159;49.426;11.182;2022-11-20T01:47:34;0.80;99.90
11538;DHT22;50159;49.426;11.182;2022-11-20T01:50:14;0.80;99.90
11538;DHT22;50159;49.426;11.182;2022-11-20T01:52:50;0.80;99.90
11538;DHT22;50159;49.426;11.182;2022-11-20T01:55:27;0.80;99.90
11538;DHT22;50159;49.426;11.182;2022-11-20T01:57:57;0.90;99.90
11538;DHT22;50159;49.426;11.182;2022-11-20T02:00:26;0.90;99.90
11538;DHT22;50159;49.426;11.182;2022-11-20T02:02:58;0.90;99.90
11538;DHT22;50159;49.426;11.182;2022-11-20T02:05:40;0.90;99.90
11538;DHT22;50159;49.426;11.182;2022-11-20T02:08:12;0.90;99.90
11538;DHT22;50159;49.426;11.182;2022-11-20T02:10:39;0.90;99.90
11538;DHT22;50159;49.426;11.182;2022-11-20T02:13:06;0.90;99.90
11538;DHT22;50159;49.426;11.182;2022-11-20T02:15:53;0.90;99.90
11538;DHT22;50159;49.426;11.182;2022-11-20T02:18:21;0.90;99.90
11538;DHT22;50159;49.426;11.182;2022-11-20T02:20:58;0.90;99.90
11538;DHT22;50159;49.426;11.182;2022-11-20T02:23:38;1.00;99.90
11538;DHT22;50159;49.426;11.182;2022-11-20T02:26:12;1.00;99.90
11538;DHT22;50159;49.426;11.182;2022-11-20T02:28:40;0.90;99.90
11538;DHT22;50159;49.426;11.182;2022-11-20T02:31:07;1.00;99.90
11538;DHT22;50159;49.426;11.182;2022-11-20T02:33:34;1.00;99.90
11538;DHT22;50159;49.426;11.182;2022-11-20T02:36:01;1.00;99.90
11538;DHT22;50159;49.426;11.182;2022-11-20T02:38:28;1.00;99.90
11538;DHT22;50159;49.426;11.182;2022-11-20T02:40:54;1.00;99.90
11538;DHT22;50159;49.426;11.182;2022-11-20T02:43:22;1.00;99.90
11538;DHT22;50159;49.426;11.182;2022-11-20T02:45:49;1.00;99.90
11538;DHT22;50159;49.426;11.182;2022-11-20T02:48:16;1.10;99.90
11538;DHT22;50159;49.426;11.182;2022-11-20T02:50:43;1.10;99.90
11538;DHT22;50159;49.426;11.182;2022-11-20T02:53:09;1.10;99.90
11538;DHT22;50159;49.426;11.182;2022-11-20T02:55:36;1.10;99.90
11538;DHT22;50159;49.426;11.182;2022-11-20T02:58:03;1.10;99.90
11538;DHT22;50159;49.426;11.182;2022-11-20T03:00:30;1.10;99.90
11538;DHT22;50159;49.426;11.182;2022-11-20T03:02:57;1.10;99.90
11538;DHT22;50159;49.426;11.182;2022-11-20T03:05:23;1.10;99.90
11538;DHT22;50159;49.426;11.182;2022-11-20T03:07:50;1.10;99.90
11538;DHT22;50159;49.426;11.182;2022-11-20T03:10:17;1.10;99.90
11538;DHT22;50159;49.426;11.182;2022-11-20T03:12:43;1.10;99.90
11538;DHT22;50159;49.426;11.182;2022-11-20T03:15:10;1.10;99.90
11538;DHT22;50159;49.426;11.182;2022-11-20T03:17:37;1.10;99.90
11538;DHT22;50159;49.426;11.182;2022-11-20T03:20:04;1.20;99.90
11538;DHT22;50159;49.426;11.182;2022-11-20T03:22:32;1.20;99.90
11538;DHT22;50159;49.426;11.182;2022-11-20T03:24:59;1.20;99.90
11538;DHT22;50159;49.426;11.182;2022-11-20T03:27:25;1.20;99.90
11538;DHT22;50159;49.426;11.182;2022-11-20T03:29:52;1.20;99.90
11538;DHT22;50159;49.426;11.182;2022-11-20T03:32:19;1.20;99.90
11538;DHT22;50159;49.426;11.182;2022-11-20T03:34:45;1.20;99.90
11538;DHT22;50159;49.426;11.182;2022-11-20T03:37:12;1.20;99.90
11538;DHT22;50159;49.426;11.182;2022-11-20T03:39:39;1.20;99.90
11538;DHT22;50159;49.426;11.182;2022-11-20T03:42:06;1.20;99.90
11538;DHT22;50159;49.426;11.182;2022-11-20T03:44:52;1.20;99.90
11538;DHT22;50159;49.426;11.182;2022-11-20T03:47:19;1.20;99.90
11538;DHT22;50159;49.426;11.182;2022-11-20T03:49:46;1.20;99.90
11538;DHT22;50159;49.426;11.182;2022-11-20T03:52:12;1.20;99.90
11538;DHT22;50159;49.426;11.182;2022-11-20T03:54:39;1.20;99.90
11538;DHT22;50159;49.426;11.182;2022-11-20T03:57:06;1.10;99.90
11538;DHT22;50159;49.426;11.182;2022-11-20T03:59:33;1.10;99.90
11538;DHT22;50159;49.426;11.182;2022-11-20T04:01:59;1.20;99.90
11538;DHT22;50159;49.426;11.182;2022-11-20T04:04:26;1.20;99.90
11538;DHT22;50159;49.426;11.182;2022-11-20T04:06:53;1.10;99.90
11538;DHT22;50159;49.426;11.182;2022-11-20T04:09:19;1.20;99.90
11538;DHT22;50159;49.426;11.182;2022-11-20T04:11:47;1.20;99.90
11538;DHT22;50159;49.426;11.182;2022-11-20T04:14:15;1.20;99.90
11538;DHT22;50159;49.426;11.182;2022-11-20T04:16:43;1.20;99.90
11538;DHT22;50159;49.426;11.182;2022-11-20T04:19:14;1.20;99.90
11538;DHT22;50159;49.426;11.182;2022-11-20T04:21:44;1.20;99.90
11538;DHT22;50159;49.426;11.182;2022-11-20T04:24:11;1.20;99.90
11538;DHT22;50159;49.426;11.182;2022-11-20T04:26:38;1.20;99.90
11538;DHT22;50159;49.426;11.182;2022-11-20T04:29:05;1.20;99.90
11538;DHT22;50159;49.426;11.182;2022-11-20T04:31:34;1.20;99.90
11538;DHT22;50159;49.426;11.182;2022-11-20T04:34:03;1.20;99.90
11538;DHT22;50159;49.426;11.182;2022-11-20T04:36:31;1.20;99.90
11538;DHT22;50159;49.426;11.182;2022-11-20T04:39:04;1.20;99.90
11538;DHT22;50159;49.426;11.182;2022-11-20T04:41:34;1.10;99.90
11538;DHT22;50159;49.426;11.182;2022-11-20T04:44:03;1.10;99.90
11538;DHT22;50159;49.426;11.182;2022-11-20T04:46:36;1.10;99.90
11538;DHT22;50159;49.426;11.182;2022-11-20T04:49:05;1.10;99.90
11538;DHT22;50159;49.426;11.182;2022-11-20T04:51:34;1.10;99.90
11538;DHT22;50159;49.426;11.182;2022-11-20T04:54:01;1.10;99.90
11538;DHT22;50159;49.426;11.182;2022-11-20T04:56:28;1.10;99.90
11538;DHT22;50159;49.426;11.182;2022-11-20T04:58:55;1.10;99.90
11538;DHT22;50159;49.426;11.182;2022-11-20T05:01:23;1.10;99.90
11538;DHT22;50159;49.426;11.182;2022-11-20T05:03:51;1.10;99.90
11538;DHT22;50159;49.426;11.182;2022-11-20T05:06:19;1.00;99.90
11538;DHT22;50159;49.426;11.182;2022-11-20T05:08:47;1.00;99.90
11538;DHT22;50159;49.426;11.182;2022-11-20T05:11:17;1.00;99.90
11538;DHT22;50159;49.426;11.182;2022-11-20T05:13:46;1.00;99.90
11538;DHT22;50159;49.426;11.182;2022-11-20T05:16:16;1.10;99.90
11538;DHT22;50159;49.426;11.182;2022-11-20T05:18:44;1.10;99.90
11538;DHT22;50159;49.426;11.182;2022-11-20T05:21:12;1.10;99.90
11538;DHT22;50159;49.426;11.182;2022-11-20T05:23:40;1.10;99.90
11538;DHT22;50159;49.426;11.182;2022-11-20T05:26:12;1.10;99.90
11538;DHT22;50159;49.426;11.182;2022-11-20T05:28:40;1.20;99.90
11538;DHT22;50159;49.426;11.182;2022-11-20T05:31:08;1.20;99.90
11538;DHT22;50159;49.426;11.182;2022-11-20T05:33:39;1.20;99.90
11538;DHT22;50159;49.426;11.182;2022-11-20T05:36:07;1.20;99.90
11538;DHT22;50159;49.426;11.182;2022-11-20T05:38:35;1.20;99.90
11538;DHT22;50159;49.426;11.182;2022-11-20T05:41:06;1.20;99.90
11538;DHT22;50159;49.426;11.182;2022-11-20T05:43:35;1.20;99.90
11538;DHT22;50159;49.426;11.182;2022-11-20T05:46:04;1.20;99.90
11538;DHT22;50159;49.426;11.182;2022-11-20T05:48:32;1.20;99.90
11538;DHT22;50159;49.426;11.182;2022-11-20T05:51:02;1.20;99.90
11538;DHT22;50159;49.426;11.182;2022-11-20T05:53:30;1.20;99.90
11538;DHT22;50159;49.426;11.182;2022-11-20T05:56:10;1.20;99.90
11538;DHT22;50159;49.426;11.182;2022-11-20T05:58:42;1.30;99.90
11538;DHT22;50159;49.426;11.182;2022-11-20T06:01:16;1.30;99.90
11538;DHT22;50159;49.426;11.182;2022-11-20T06:03:45;1.30;99.90
11538;DHT22;50159;49.426;11.182;2022-11-20T06:06:15;1.20;99.90
11538;DHT22;50159;49.426;11.182;2022-11-20T06:08:43;1.30;99.90
11538;DHT22;50159;49.426;11.182;2022-11-20T06:11:12;1.30;99.90
11538;DHT22;50159;49.426;11.182;2022-11-20T06:13:40;1.30;99.90
11538;DHT22;50159;49.426;11.182;2022-11-20T06:16:09;1.30;99.90
11538;DHT22;50159;49.426;11.182;2022-11-20T06:18:37;1.30;99.90
11538;DHT22;50159;49.426;11.182;2022-11-20T06:21:06;1.30;99.90
11538;DHT22;50159;49.426;11.182;2022-11-20T06:23:36;1.30;99.90
11538;DHT22;50159;49.426;11.182;2022-11-20T06:26:07;1.30;99.90
11538;DHT22;50159;49.426;11.182;2022-11-20T06:28:36;1.30;99.90
11538;DHT22;50159;49.426;11.182;2022-11-20T06:31:03;1.30;99.90
11538;DHT22;50159;49.426;11.182;2022-11-20T06:33:31;1.30;99.90
11538;DHT22;50159;49.426;11.182;2022-11-20T06:35:59;1.30;99.90
11538;DHT22;50159;49.426;11.182;2022-11-20T06:38:34;1.40;99.90
11538;DHT22;50159;49.426;11.182;2022-11-20T06:41:01;1.30;99.90
11538;DHT22;50159;49.426;11.182;2022-11-20T06:43:30;1.40;99.90
11538;DHT22;50159;49.426;11.182;2022-11-20T06:45:58;1.40;99.90
11538;DHT22;50159;49.426;11.182;2022-11-20T06:48:29;1.40;99.90
11538;DHT22;50159;49.426;11.182;2022-11-20T06:50:56;1.40;99.90
11538;DHT22;50159;49.426;11.182;2022-11-20T06:53:24;1.50;99.90
11538;DHT22;50159;49.426;11.182;2022-11-20T06:55:51;1.50;99.90
11538;DHT22;50159;49.426;11.182;2022-11-20T06:58:19;1.50;99.90
11538;DHT22;50159;49.426;11.182;2022-11-20T07:00:45;1.40;99.90
11538;DHT22;50159;49.426;11.182;2022-11-20T07:03:13;1.40;99.90
11538;DHT22;50159;49.426;11.182;2022-11-20T07:05:40;1.40;99.90
11538;DHT22;50159;49.426;11.182;2022-11-20T07:08:07;1.40;99.90
11538;DHT22;50159;49.426;11.182;2022-11-20T07:10:35;1.40;99.90
11538;DHT22;50159;49.426;11.182;2022-11-20T07:13:02;1.50;99.90
11538;DHT22;50159;49.426;11.182;2022-11-20T07:15:29;1.40;99.90
11538;DHT22;50159;49.426;11.182;2022-11-20T07:17:58;1.40;99.90
11538;DHT22;50159;49.426;11.182;2022-11-20T07:20:26;1.40;99.90
11538;DHT22;50159;49.426;11.182;2022-11-20T07:22:57;1.40;99.90
11538;DHT22;50159;49.426;11.182;2022-11-20T07:25:26;1.40;99.90
11538;DHT22;50159;49.426;11.182;2022-11-20T07:27:58;1.40;99.90
11538;DHT22;50159;49.426;11.182;2022-11-20T07:30:27;1.40;99.90
11538;DHT22;50159;49.426;11.182;2022-11-20T07:32:55;1.40;99.90
11538;DHT22;50159;49.426;11.182;2022-11-20T07:35:24;1.40;99.90
11538;DHT22;50159;49.426;11.182;2022-11-20T07:37:51;1.40;99.90
11538;DHT22;50159;49.426;11.182;2022-11-20T07:40:18;1.40;99.90
11538;DHT22;50159;49.426;11.182;2022-11-20T07:42:54;1.50;99.90
11538;DHT22;50159;49.426;11.182;2022-11-20T07:45:23;1.50;99.90
11538;DHT22;50159;49.426;11.182;2022-11-20T07:47:51;1.60;99.90
11538;DHT22;50159;49.426;11.182;2022-11-20T07:50:18;1.60;99.90
11538;DHT22;50159;49.426;11.182;2022-11-20T07:52:46;1.60;99.90
11538;DHT22;50159;49.426;11.182;2022-11-20T07:55:14;1.60;99.90
11538;DHT22;50159;49.426;11.182;2022-11-20T07:57:41;1.60;99.90
11538;DHT22;50159;49.426;11.182;2022-11-20T08:00:10;1.60;99.90
11538;DHT22;50159;49.426;11.182;2022-11-20T08:02:38;1.60;99.90
11538;DHT22;50159;49.426;11.182;2022-11-20T08:05:07;1.60;99.90
11538;DHT22;50159;49.426;11.182;2022-11-20T08:07:38;1.60;99.90
11538;DHT22;50159;49.426;11.182;2022-11-20T08:10:08;1.70;99.90
11538;DHT22;50159;49.426;11.182;2022-11-20T08:12:47;1.70;99.90
11538;DHT22;50159;49.426;11.182;2022-11-20T08:15:34;1.70;99.90
11538;DHT22;50159;49.426;11.182;2022-11-20T08:18:07;1.80;99.90
11538;DHT22;50159;49.426;11.182;2022-11-20T08:20:57;1.90;99.90
11538;DHT22;50159;49.426;11.182;2022-11-20T08:23:24;1.90;99.90
11538;DHT22;50159;49.426;11.182;2022-11-20T08:25:51;1.90;99.90
11538;DHT22;50159;49.426;11.182;2022-11-20T08:28:18;1.90;99.90
11538;DHT22;50159;49.426;11.182;2022-11-20T08:30:48;1.90;99.90
11538;DHT22;50159;49.426;11.182;2022-11-20T08:33:16;1.80;99.90
11538;DHT22;50159;49.426;11.182;2022-11-20T08:35:44;1.90;99.90
11538;DHT22;50159;49.426;11.182;2022-11-20T08:38:10;1.90;99.90
11538;DHT22;50159;49.426;11.182;2022-11-20T08:40:37;1.90;99.90
11538;DHT22;50159;49.426;11.182;2022-11-20T08:43:04;1.90;99.90
11538;DHT22;50159;49.426;11.182;2022-11-20T08:45:31;1.90;99.90
11538;DHT22;50159;49.426;11.182;2022-11-20T08:48:04;1.90;99.90
11538;DHT22;50159;49.426;11.182;2022-11-20T08:50:31;1.90;99.90
11538;DHT22;50159;49.426;11.182;2022-11-20T08:53:06;1.90;99.90
11538;DHT22;50159;49.426;11.182;2022-11-20T08:55:33;1.90;99.90
11538;DHT22;50159;49.426;11.182;2022-11-20T08:58:05;1.90;99.90
11538;DHT22;50159;49.426;11.182;2022-11-20T09:00:33;1.90;99.90
11538;DHT22;50159;49.426;11.182;2022-11-20T09:03:01;1.90;99.90
11538;DHT22;50159;49.426;11.182;2022-11-20T09:05:28;1.90;99.90
11538;DHT22;50159;49.426;11.182;2022-11-20T09:07:59;2.00;99.90
11538;DHT22;50159;49.426;11.182;2022-11-20T09:10:27;2.00;99.90
11538;DHT22;50159;49.426;11.182;2022-11-20T09:12:54;2.10;99.90
11538;DHT22;50159;49.426;11.182;2022-11-20T09:15:22;2.00;99.90
11538;DHT22;50159;49.426;11.182;2022-11-20T09:17:54;2.00;99.90
11538;DHT22;50159;49.426;11.182;2022-11-20T09:20:22;2.00;99.90
11538;DHT22;50159;49.426;11.182;2022-11-20T09:22:49;2.00;99.90
11538;DHT22;50159;49.426;11.182;2022-11-20T09:25:16;2.10;99.90
11538;DHT22;50159;49.426;11.182;2022-11-20T09:27:43;2.10;99.90
11538;DHT22;50159;49.426;11.182;2022-11-20T09:30:13;2.10;99.90
11538;DHT22;50159;49.426;11.182;2022-11-20T09:32:42;2.20;99.90
11538;DHT22;50159;49.426;11.182;2022-11-20T09:35:09;2.30;99.90
11538;DHT22;50159;49.426;11.182;2022-11-20T09:37:37;2.30;99.90
11538;DHT22;50159;49.426;11.182;2022-11-20T09:40:04;2.30;99.90
11538;DHT22;50159;49.426;11.182;2022-11-20T09:51:05;2.40;99.90
11538;DHT22;50159;49.426;11.182;2022-11-20T09:54:05;2.40;99.90
11538;DHT22;50159;49.426;11.182;2022-11-20T09:56:42;2.50;99.90
11538;DHT22;50159;49.426;11.182;2022-11-20T09:59:38;2.50;99.90
11538;DHT22;50159;49.426;11.182;2022-11-20T10:07:32;2.50;99.90
11538;DHT22;50159;49.426;11.182;2022-11-20T10:10:13;2.50;99.90
11538;DHT22;50159;49.426;11.182;2022-11-20T10:13:07;2.60;99.90
11538;DHT22;50159;49.426;11.182;2022-11-20T10:15:53;2.60;99.90
11538;DHT22;50159;49.426;11.182;2022-11-20T10:18:54;2.60;99.90
11538;DHT22;50159;49.426;11.182;2022-11-20T10:30:17;2.60;99.90
11538;DHT22;50159;49.426;11.182;2022-11-20T10:32:50;2.60;99.90
11538;DHT22;50159;49.426;11.182;2022-11-20T10:35:28;2.60;99.90
11538;DHT22;50159;49.426;11.182;2022-11-20T10:38:05;2.60;99.90
11538;DHT22;50159;49.426;11.182;2022-11-20T10:40:42;2.50;99.90
11538;DHT22;50159;49.426;11.182;2022-11-20T10:43:28;2.50;99.90
11538;DHT22;50159;49.426;11.182;2022-11-20T10:46:14;2.50;99.90
11538;DHT22;50159;49.426;11.182;2022-11-20T10:48:44;2.60;99.90
11538;DHT22;50159;49.426;11.182;2022-11-20T10:54:19;2.50;99.90
11538;DHT22;50159;49.426;11.182;2022-11-20T10:56:58;3.00;99.90
11538;DHT22;50159;49.426;11.182;2022-11-20T11:02:58;2.70;99.90
11538;DHT22;50159;49.426;11.182;2022-11-20T11:05:48;2.80;99.90
11538;DHT22;50159;49.426;11.182;2022-11-20T11:08:21;2.80;99.90
11538;DHT22;50159;49.426;11.182;2022-11-20T11:10:55;2.80;99.90
11538;DHT22;50159;49.426;11.182;2022-11-20T11:13:26;2.90;99.90
11538;DHT22;50159;49.426;11.182;2022-11-20T11:15:55;3.00;99.90
11538;DHT22;50159;49.426;11.182;2022-11-20T11:18:33;3.00;99.90
11538;DHT22;50159;49.426;11.182;2022-11-20T11:21:03;3.10;99.90
11538;DHT22;50159;49.426;11.182;2022-11-20T11:23:37;3.10;99.90
11538;DHT22;50159;49.426;11.182;2022-11-20T11:26:17;3.20;99.90
11538;DHT22;50159;49.426;11.182;2022-11-20T11:28:57;3.30;99.90
11538;DHT22;50159;49.426;11.182;2022-11-20T11:31:33;3.40;99.90
11538;DHT22;50159;49.426;11.182;2022-11-20T11:34:15;3.40;99.90
11538;DHT22;50159;49.426;11.182;2022-11-20T11:36:54;3.50;99.90
11538;DHT22;50159;49.426;11.182;2022-11-20T11:39:24;3.60;99.90
11538;DHT22;50159;49.426;11.182;2022-11-20T11:41:53;3.40;99.90
11538;DHT22;50159;49.426;11.182;2022-11-20T11:44:23;3.20;99.90
11538;DHT22;50159;49.426;11.182;2022-11-20T11:47:25;3.00;99.90
11538;DHT22;50159;49.426;11.182;2022-11-20T12:01:34;3.10;99.90
11538;DHT22;50159;49.426;11.182;2022-11-20T12:04:16;3.20;99.90
11538;DHT22;50159;49.426;11.182;2022-11-20T12:06:57;3.10;99.90
11538;DHT22;50159;49.426;11.182;2022-11-20T12:09:51;3.10;99.90
11538;DHT22;50159;49.426;11.182;2022-11-20T12:12:24;3.10;99.90
11538;DHT22;50159;49.426;11.182;2022-11-20T12:14:57;3.20;99.90
11538;DHT22;50159;49.426;11.182;2022-11-20T12:17:24;3.30;99.90
11538;DHT22;50159;49.426;11.182;2022-11-20T12:19:51;3.40;99.90
11538;DHT22;50159;49.426;11.182;2022-11-20T12:22:40;3.40;99.90
11538;DHT22;50159;49.426;11.182;2022-11-20T12:25:19;3.40;99.90
11538;DHT22;50159;49.426;11.182;2022-11-20T12:30:32;3.30;99.90
11538;DHT22;50159;49.426;11.182;2022-11-20T12:33:36;3.30;99.90
11538;DHT22;50159;49.426;11.182;2022-11-20T12:36:41;3.20;99.90
11538;DHT22;50159;49.426;11.182;2022-11-20T12:39:43;3.20;99.90
11538;DHT22;50159;49.426;11.182;2022-11-20T12:45:51;3.20;99.90
11538;DHT22;50159;49.426;11.182;2022-11-20T12:48:42;3.20;99.90
11538;DHT22;50159;49.426;11.182;2022-11-20T12:51:37;3.30;99.90
11538;DHT22;50159;49.426;11.182;2022-11-20T13:00:24;3.40;99.90
11538;DHT22;50159;49.426;11.182;2022-11-20T13:08:43;3.40;99.90
11538;DHT22;50159;49.426;11.182;2022-11-20T13:14:07;3.30;99.90
11538;DHT22;50159;49.426;11.182;2022-11-20T13:19:55;3.30;99.90
11538;DHT22;50159;49.426;11.182;2022-11-20T13:22:29;3.30;99.90
11538;DHT22;50159;49.426;11.182;2022-11-20T13:25:21;3.30;99.90
11538;DHT22;50159;49.426;11.182;2022-11-20T13:27:49;3.30;99.90
11538;DHT22;50159;49.426;11.182;2022-11-20T13:32:58;3.10;99.90
11538;DHT22;50159;49.426;11.182;2022-11-20T13:35:31;3.20;99.90
11538;DHT22;50159;49.426;11.182;2022-11-20T13:38:06;3.10;99.90
11538;DHT22;50159;49.426;11.182;2022-11-20T13:40:34;3.10;99.90
11538;DHT22;50159;49.426;11.182;2022-11-20T13:43:21;3.10;99.90
11538;DHT22;50159;49.426;11.182;2022-11-20T13:46:03;3.00;99.90
11538;DHT22;50159;49.426;11.182;2022-11-20T13:48:51;3.00;99.90
11538;DHT22;50159;49.426;11.182;2022-11-20T13:54:22;3.00;99.90
11538;DHT22;50159;49.426;11.182;2022-11-20T13:57:34;3.00;99.90
11538;DHT22;50159;49.426;11.182;2022-11-20T14:00:23;3.00;99.90
11538;DHT22;50159;49.426;11.182;2022-11-20T14:03:08;3.00;99.90
11538;DHT22;50159;49.426;11.182;2022-11-20T14:06:02;3.00;99.90
11538;DHT22;50159;49.426;11.182;2022-11-20T14:08:44;3.00;99.90
11538;DHT22;50159;49.426;11.182;2022-11-20T14:11:31;3.10;99.90
11538;DHT22;50159;49.426;11.182;2022-11-20T14:14:21;3.10;99.90
11538;DHT22;50159;49.426;11.182;2022-11-20T14:16:52;3.10;99.90
11538;DHT22;50159;49.426;11.182;2022-11-20T14:24:19;3.10;99.90
11538;DHT22;50159;49.426;11.182;2022-11-20T14:26:47;3.10;99.90
11538;DHT22;50159;49.426;11.182;2022-11-20T14:29:19;3.10;99.90
11538;DHT22;50159;49.426;11.182;2022-11-20T14:31:54;3.10;99.90
11538;DHT22;50159;49.426;11.182;2022-11-20T14:34:30;3.10;99.90
11538;DHT22;50159;49.426;11.182;2022-11-20T14:37:02;3.10;99.90
11538;DHT22;50159;49.426;11.182;2022-11-20T14:39:37;3.10;99.90
11538;DHT22;50159;49.426;11.182;2022-11-20T14:42:22;3.10;99.90
11538;DHT22;50159;49.426;11.182;2022-11-20T14:44:51;3.10;99.90
11538;DHT22;50159;49.426;11.182;2022-11-20T14:47:24;3.10;99.90
11538;DHT22;50159;49.426;11.182;2022-11-20T14:49:55;3.10;99.90
11538;DHT22;50159;49.426;11.182;2022-11-20T14:52:25;3.10;99.90
11538;DHT22;50159;49.426;11.182;2022-11-20T14:54:57;3.10;99.90
11538;DHT22;50159;49.426;11.182;2022-11-20T14:57:29;3.10;99.90
11538;DHT22;50159;49.426;11.182;2022-11-20T15:00:17;3.20;99.90
11538;DHT22;50159;49.426;11.182;2022-11-20T15:02:48;3.10;99.90
11538;DHT22;50159;49.426;11.182;2022-11-20T15:05:22;3.10;99.90
11538;DHT22;50159;49.426;11.182;2022-11-20T15:08:06;3.10;99.90
11538;DHT22;50159;49.426;11.182;2022-11-20T15:10:35;3.10;99.90
11538;DHT22;50159;49.426;11.182;2022-11-20T15:13:10;3.10;99.90
11538;DHT22;50159;49.426;11.182;2022-11-20T15:15:48;3.10;99.90
11538;DHT22;50159;49.426;11.182;2022-11-20T15:18:31;3.10;99.90
11538;DHT22;50159;49.426;11.182;2022-11-20T15:21:06;3.10;99.90
11538;DHT22;50159;49.426;11.182;2022-11-20T15:23:38;3.10;99.90
11538;DHT22;50159;49.426;11.182;2022-11-20T15:26:05;3.10;99.90
11538;DHT22;50159;49.426;11.182;2022-11-20T15:28:39;3.10;99.90
11538;DHT22;50159;49.426;11.182;2022-11-20T15:31:14;3.10;99.90
11538;DHT22;50159;49.426;11.182;2022-11-20T15:33:42;3.00;99.90
11538;DHT22;50159;49.426;11.182;2022-11-20T15:36:09;3.00;99.90
11538;DHT22;50159;49.426;11.182;2022-11-20T15:38:36;3.00;99.90
11538;DHT22;50159;49.426;11.182;2022-11-20T15:41:03;3.00;99.90
11538;DHT22;50159;49.426;11.182;2022-11-20T15:43:30;3.00;99.90
11538;DHT22;50159;49.426;11.182;2022-11-20T15:46:06;3.00;99.90
11538;DHT22;50159;49.426;11.182;2022-11-20T15:48:42;3.00;99.90
11538;DHT22;50159;49.426;11.182;2022-11-20T15:51:29;3.00;99.90
11538;DHT22;50159;49.426;11.182;2022-11-20T15:53:58;2.90;99.90
11538;DHT22;50159;49.426;11.182;2022-11-20T15:56:25;2.90;99.90
11538;DHT22;50159;49.426;11.182;2022-11-20T15:58:52;2.90;99.90
11538;DHT22;50159;49.426;11.182;2022-11-20T16:01:21;2.90;99.90
11538;DHT22;50159;49.426;11.182;2022-11-20T16:03:48;2.90;99.90
11538;DHT22;50159;49.426;11.182;2022-11-20T16:06:15;2.90;99.90
11538;DHT22;50159;49.426;11.182;2022-11-20T16:08:45;2.90;99.90
11538;DHT22;50159;49.426;11.182;2022-11-20T16:11:16;2.90;99.90
11538;DHT22;50159;49.426;11.182;2022-11-20T16:13:44;3.00;99.90
11538;DHT22;50159;49.426;11.182;2022-11-20T16:16:33;3.00;99.90
11538;DHT22;50159;49.426;11.182;2022-11-20T16:19:01;2.90;99.90
11538;DHT22;50159;49.426;11.182;2022-11-20T16:21:29;2.80;99.90
11538;DHT22;50159;49.426;11.182;2022-11-20T16:24:02;2.80;99.90
11538;DHT22;50159;49.426;11.182;2022-11-20T16:26:32;2.80;99.90
11538;DHT22;50159;49.426;11.182;2022-11-20T16:29:00;2.80;99.90
11538;DHT22;50159;49.426;11.182;2022-11-20T16:31:29;2.90;99.90
11538;DHT22;50159;49.426;11.182;2022-11-20T16:33:58;2.90;99.90
11538;DHT22;50159;49.426;11.182;2022-11-20T16:36:27;2.90;99.90
11538;DHT22;50159;49.426;11.182;2022-11-20T16:38:57;2.90;99.90
11538;DHT22;50159;49.426;11.182;2022-11-20T16:41:27;3.00;99.90
11538;DHT22;50159;49.426;11.182;2022-11-20T16:43:57;2.90;99.90
11538;DHT22;50159;49.426;11.182;2022-11-20T16:46:29;2.90;99.90
11538;DHT22;50159;49.426;11.182;2022-11-20T16:48:59;2.90;99.90
11538;DHT22;50159;49.426;11.182;2022-11-20T16:51:31;2.90;99.90
11538;DHT22;50159;49.426;11.182;2022-11-20T16:54:07;2.80;99.90
11538;DHT22;50159;49.426;11.182;2022-11-20T16:56:35;2.80;99.90
11538;DHT22;50159;49.426;11.182;2022-11-20T16:59:03;2.70;99.90
11538;DHT22;50159;49.426;11.182;2022-11-20T17:01:29;2.70;99.90
11538;DHT22;50159;49.426;11.182;2022-11-20T17:03:58;2.70;99.90
11538;DHT22;50159;49.426;11.182;2022-11-20T17:06:28;2.60;99.90
11538;DHT22;50159;49.426;11.182;2022-11-20T17:08:57;2.60;99.90
11538;DHT22;50159;49.426;11.182;2022-11-20T17:11:25;2.60;99.90
11538;DHT22;50159;49.426;11.182;2022-11-20T17:13:57;2.60;99.90
11538;DHT22;50159;49.426;11.182;2022-11-20T17:16:26;2.60;99.90